Time;durP1;ratioP1;P1;durP2;ratioP2;P2;SDS_P1;SDS_P2;PMS_P1;PMS_P2;Temp;Humidity;BMP_temperature;BMP_pressure;BME280_temperature;BME280_humidity;BME280_pressure;Samples;Min_cycle;Max_cycle;Signal;HPM_P1;HPM_P2
2021/06/06 00:00:58;;;;;;;1.00;0.80;;;17.80;68.90;;;;;;5113310;27;36855;-75
2021/06/06 00:03:30;;;;;;;1.30;0.80;;;17.80;68.80;;;;;;5089436;28;35691;-74
2021/06/06 00:05:59;;;;;;;1.00;0.90;;;17.80;68.90;;;;;;5086838;28;39533;-75
2021/06/06 00:08:28;;;;;;;0.87;0.80;;;17.80;68.90;;;;;;5090166;28;38784;-76
2021/06/06 00:11:05;;;;;;;2.83;1.10;;;17.90;68.90;;;;;;5089569;28;38032;-75
2021/06/06 00:13:32;;;;;;;1.80;1.10;;;17.90;69.00;;;;;;5086692;28;37988;-75
2021/06/06 00:15:59;;;;;;;1.10;1.00;;;17.90;69.00;;;;;;5089668;28;39925;-75
2021/06/06 00:18:30;;;;;;;1.77;1.27;;;17.80;68.80;;;;;;5085657;28;38823;-75
2021/06/06 00:20:57;;;;;;;1.40;1.30;;;17.80;68.90;;;;;;5113067;27;38121;-75
2021/06/06 00:23:25;;;;;;;1.23;1.00;;;17.80;69.00;;;;;;5089431;28;37156;-75
2021/06/06 00:25:52;;;;;;;1.57;1.23;;;17.80;69.00;;;;;;5088889;28;39668;-75
2021/06/06 00:28:19;;;;;;;1.60;1.10;;;17.90;69.00;;;;;;5090290;28;39693;-75
2021/06/06 00:30:46;;;;;;;2.03;1.10;;;17.90;69.00;;;;;;5089356;28;37799;-75
2021/06/06 00:33:13;;;;;;;2.33;2.13;;;17.90;68.90;;;;;;5093241;28;37260;-75
2021/06/06 00:35:43;;;;;;;3.50;1.10;;;17.90;68.40;;;;;;5092634;28;39181;-75
2021/06/06 00:38:10;;;;;;;1.10;0.83;;;17.90;68.10;;;;;;5093799;28;39753;-75
2021/06/06 00:40:39;;;;;;;1.50;0.93;;;17.90;68.60;;;;;;5092993;28;36943;-75
2021/06/06 00:43:08;;;;;;;2.10;1.40;;;17.90;68.50;;;;;;5090303;28;35722;-75
2021/06/06 00:45:42;;;;;;;1.73;1.30;;;17.80;68.30;;;;;;5111450;27;38491;-76
2021/06/06 00:48:11;;;;;;;1.70;0.97;;;17.80;68.40;;;;;;5104494;28;38135;-75
2021/06/06 00:50:43;;;;;;;0.90;0.80;;;17.80;68.50;;;;;;5087790;28;38775;-76
2021/06/06 00:53:18;;;;;;;0.80;0.80;;;17.80;68.50;;;;;;5086454;28;37056;-76
2021/06/06 00:55:46;;;;;;;1.20;1.10;;;17.80;68.20;;;;;;5090556;28;39887;-76
2021/06/06 00:58:15;;;;;;;1.00;0.90;;;17.80;68.20;;;;;;5092167;28;39348;-76
2021/06/06 01:00:44;;;;;;;1.73;1.23;;;17.80;68.70;;;;;;5088453;28;36843;-75
2021/06/06 01:03:12;;;;;;;1.07;0.97;;;17.80;68.20;;;;;;5090964;28;35792;-75
2021/06/06 01:05:45;;;;;;;1.43;1.10;;;17.70;68.10;;;;;;5092715;28;39444;-75
2021/06/06 01:08:17;;;;;;;1.20;1.10;;;17.70;68.30;;;;;;5095210;27;38041;-74
2021/06/06 01:10:50;;;;;;;1.30;1.20;;;17.70;68.40;;;;;;5092468;28;38004;-74
2021/06/06 01:13:25;;;;;;;1.50;1.33;;;17.70;68.50;;;;;;5119072;27;35945;-75
2021/06/06 01:15:59;;;;;;;2.73;1.10;;;17.70;68.50;;;;;;5089074;28;40624;-75
2021/06/06 01:18:34;;;;;;;3.40;1.07;;;17.70;68.30;;;;;;5091646;28;37833;-75
2021/06/06 01:21:25;;;;;;;1.10;0.93;;;17.70;68.40;;;;;;5124076;27;38148;-75
2021/06/06 01:24:25;;;;;;;2.83;1.20;;;17.70;68.30;;;;;;5084062;28;35697;-75
2021/06/06 01:26:58;;;;;;;1.17;1.07;;;17.70;68.10;;;;;;5090988;28;38257;-74
2021/06/06 01:29:44;;;;;;;1.57;0.90;;;17.60;68.30;;;;;;5095877;28;37496;-75
2021/06/06 01:32:19;;;;;;;1.17;1.07;;;17.60;68.30;;;;;;5089212;28;37181;-75
2021/06/06 01:34:53;;;;;;;1.77;1.10;;;17.60;68.20;;;;;;5090278;28;37189;-75
2021/06/06 01:37:22;;;;;;;1.20;1.00;;;17.60;68.10;;;;;;5089626;28;39528;-75
2021/06/06 01:39:57;;;;;;;4.90;4.00;;;17.60;68.20;;;;;;5120046;27;37560;-75
2021/06/06 01:42:30;;;;;;;1.20;0.90;;;17.60;68.20;;;;;;5084149;28;36789;-76
2021/06/06 01:45:03;;;;;;;1.43;1.00;;;17.60;68.20;;;;;;5087551;28;36289;-74
2021/06/06 01:47:31;;;;;;;1.33;1.00;;;17.60;68.10;;;;;;5081986;27;39669;-75
2021/06/06 01:50:03;;;;;;;2.23;1.40;;;17.60;67.80;;;;;;5090880;28;38907;-76
2021/06/06 01:52:34;;;;;;;1.10;1.00;;;17.60;68.20;;;;;;5091197;28;38538;-74
2021/06/06 01:55:10;;;;;;;2.07;1.17;;;17.50;68.40;;;;;;5091434;28;35533;-75
2021/06/06 01:57:44;;;;;;;1.40;1.30;;;17.50;68.50;;;;;;5087223;28;38281;-76
2021/06/06 02:00:18;;;;;;;1.83;1.67;;;17.50;68.70;;;;;;5092517;28;39016;-75
2021/06/06 02:02:46;;;;;;;2.03;1.30;;;17.40;68.50;;;;;;5090493;28;38575;-74
2021/06/06 02:05:18;;;;;;;2.57;1.57;;;17.40;68.90;;;;;;5091524;28;35720;-75
2021/06/06 02:07:52;;;;;;;1.70;1.60;;;17.40;68.90;;;;;;5091061;28;39145;-75
2021/06/06 02:10:25;;;;;;;1.67;1.57;;;17.40;69.60;;;;;;5127883;27;37892;-75
2021/06/06 02:13:01;;;;;;;1.50;1.40;;;17.30;69.80;;;;;;5118375;27;38027;-75
2021/06/06 02:15:32;;;;;;;3.23;1.43;;;17.30;69.60;;;;;;5124005;27;35982;-75
2021/06/06 02:18:13;;;;;;;1.97;1.47;;;17.30;70.00;;;;;;5089503;28;38664;-75
2021/06/06 02:20:43;;;;;;;1.50;1.40;;;17.20;70.00;;;;;;5091020;28;38624;-74
2021/06/06 02:23:27;;;;;;;2.40;1.63;;;17.20;70.00;;;;;;5089338;28;36586;-75
2021/06/06 02:26:03;;;;;;;1.53;1.43;;;17.20;69.80;;;;;;5120713;27;36391;-75
2021/06/06 02:28:40;;;;;;;1.83;1.57;;;17.20;69.70;;;;;;5103439;27;38833;-76
2021/06/06 02:31:17;;;;;;;1.67;1.57;;;17.20;69.40;;;;;;5088217;28;37663;-76
2021/06/06 02:33:54;;;;;;;1.20;1.10;;;17.20;69.50;;;;;;5106504;27;36586;-76
2021/06/06 02:36:35;;;;;;;1.40;1.20;;;17.20;69.40;;;;;;5114196;27;37051;-76
2021/06/06 02:39:11;;;;;;;3.10;1.33;;;17.20;69.40;;;;;;5088106;28;38992;-76
2021/06/06 02:41:49;;;;;;;2.00;1.80;;;17.20;69.60;;;;;;5090517;28;39437;-76
2021/06/06 02:44:20;;;;;;;1.20;1.10;;;17.20;69.50;;;;;;5084657;28;36858;-76
2021/06/06 02:46:55;;;;;;;1.70;1.50;;;17.20;69.50;;;;;;5089342;28;36946;-77
2021/06/06 02:49:29;;;;;;;3.90;1.80;;;17.20;69.30;;;;;;5112703;27;38141;-76
2021/06/06 02:52:04;;;;;;;2.60;1.43;;;17.20;69.20;;;;;;5087051;28;38426;-75
2021/06/06 02:54:38;;;;;;;2.20;1.47;;;17.10;68.90;;;;;;5088300;28;37971;-76
2021/06/06 02:57:18;;;;;;;1.73;1.57;;;17.10;69.00;;;;;;5088619;28;36849;-76
2021/06/06 02:59:51;;;;;;;1.87;1.70;;;17.10;69.00;;;;;;5089506;28;38254;-76
2021/06/06 03:02:25;;;;;;;1.77;1.67;;;17.10;69.10;;;;;;5089147;28;38546;-76
2021/06/06 03:04:57;;;;;;;1.77;1.67;;;17.10;69.00;;;;;;5087529;28;38083;-76
2021/06/06 03:07:29;;;;;;;1.77;1.67;;;17.20;69.00;;;;;;5080377;28;35740;-76
2021/06/06 03:09:58;;;;;;;2.10;1.90;;;17.20;69.00;;;;;;5089035;28;38362;-76
2021/06/06 03:12:28;;;;;;;2.27;1.60;;;17.20;68.70;;;;;;5089180;28;39250;-77
2021/06/06 03:15:00;;;;;;;1.80;1.70;;;17.20;68.70;;;;;;5107074;27;36877;-76
2021/06/06 03:17:35;;;;;;;1.70;1.60;;;17.10;68.60;;;;;;5082308;28;36455;-76
2021/06/06 03:20:11;;;;;;;1.87;1.77;;;17.20;68.70;;;;;;5090040;28;38623;-75
2021/06/06 03:22:43;;;;;;;1.60;1.50;;;17.10;68.90;;;;;;5087023;28;37563;-75
2021/06/06 03:25:19;;;;;;;2.13;1.93;;;17.00;69.00;;;;;;5088294;28;36670;-75
2021/06/06 03:27:49;;;;;;;3.00;1.67;;;17.00;69.20;;;;;;5088632;28;35837;-75
2021/06/06 03:30:30;;;;;;;2.40;2.20;;;17.00;69.50;;;;;;5089364;28;38537;-75
2021/06/06 03:33:00;;;;;;;2.77;1.90;;;17.00;69.70;;;;;;5084067;28;38896;-75
2021/06/06 03:35:31;;;;;;;2.53;1.73;;;17.00;69.50;;;;;;5094874;28;36745;-75
2021/06/06 03:38:00;;;;;;;2.30;2.17;;;16.90;69.40;;;;;;5116825;27;37009;-75
2021/06/06 03:40:32;;;;;;;2.33;2.13;;;16.90;69.70;;;;;;5088040;28;38361;-75
2021/06/06 03:43:27;;;;;;;2.77;2.00;;;16.90;69.80;;;;;;5080736;28;39612;-75
2021/06/06 03:45:57;;;;;;;2.00;1.90;;;16.90;69.80;;;;;;5089438;28;36597;-74
2021/06/06 03:48:30;;;;;;;2.10;1.93;;;16.90;70.00;;;;;;5082099;28;35938;-75
2021/06/06 03:50:58;;;;;;;2.57;2.10;;;16.80;70.10;;;;;;5099277;28;39923;-75
2021/06/06 03:53:28;;;;;;;1.97;1.70;;;16.80;70.20;;;;;;5085551;28;37797;-75
2021/06/06 03:56:00;;;;;;;2.13;2.03;;;16.80;70.60;;;;;;5083099;28;37770;-75
2021/06/06 03:58:29;;;;;;;4.10;2.17;;;16.80;70.50;;;;;;5080885;28;36843;-76
2021/06/06 04:00:56;;;;;;;2.47;2.03;;;16.80;70.60;;;;;;5084566;28;39772;-76
2021/06/06 04:03:24;;;;;;;2.30;2.20;;;16.80;70.60;;;;;;5088091;28;37691;-76
2021/06/06 04:05:52;;;;;;;2.77;1.77;;;16.80;70.80;;;;;;5088047;28;36782;-76
2021/06/06 04:08:26;;;;;;;2.27;2.07;;;16.90;70.80;;;;;;5113564;27;36573;-76
2021/06/06 04:11:01;;;;;;;2.10;1.90;;;16.80;70.90;;;;;;5087299;28;39083;-76
2021/06/06 04:13:30;;;;;;;5.33;1.97;;;16.90;70.70;;;;;;5087523;28;39617;-76
2021/06/06 04:16:05;;;;;;;2.17;1.97;;;16.80;70.70;;;;;;5088448;28;37659;-76
2021/06/06 04:18:35;;;;;;;2.10;1.77;;;16.80;70.50;;;;;;5089515;28;36775;-76
2021/06/06 04:21:05;;;;;;;1.83;1.73;;;16.80;70.70;;;;;;5089437;28;39565;-75
2021/06/06 04:23:32;;;;;;;1.60;1.50;;;16.90;70.60;;;;;;5090159;28;40072;-75
2021/06/06 04:26:01;;;;;;;2.10;1.90;;;16.90;70.60;;;;;;5090757;28;37980;-76
2021/06/06 04:28:32;;;;;;;1.70;1.60;;;16.80;70.20;;;;;;5114338;27;35743;-76
2021/06/06 04:31:06;;;;;;;1.93;1.83;;;16.80;70.50;;;;;;5086442;28;38393;-76
2021/06/06 04:33:34;;;;;;;2.40;2.20;;;16.80;70.70;;;;;;5110552;27;38040;-76
2021/06/06 04:36:02;;;;;;;3.47;2.13;;;16.80;71.00;;;;;;5090270;28;37555;-76
2021/06/06 04:38:30;;;;;;;2.20;2.00;;;16.80;71.20;;;;;;5091952;28;37827;-76
2021/06/06 04:41:03;;;;;;;2.50;2.27;;;16.90;71.40;;;;;;5120028;27;38361;-76
2021/06/06 04:43:31;;;;;;;2.80;2.50;;;16.80;71.60;;;;;;5118329;27;40125;-76
2021/06/06 04:46:00;;;;;;;1.77;1.67;;;16.80;71.60;;;;;;5087732;28;37956;-76
2021/06/06 04:48:32;;;;;;;2.70;2.20;;;16.80;71.70;;;;;;5090481;28;36677;-76
2021/06/06 04:51:05;;;;;;;1.80;1.47;;;16.80;71.70;;;;;;5083167;28;38198;-76
2021/06/06 04:53:38;;;;;;;1.90;1.63;;;16.80;71.90;;;;;;5079527;28;38904;-76
2021/06/06 04:56:13;;;;;;;2.23;2.03;;;16.80;72.10;;;;;;5086434;28;37895;-75
2021/06/06 04:58:43;;;;;;;6.00;2.20;;;16.80;72.20;;;;;;5098967;27;36854;-76
2021/06/06 05:01:13;;;;;;;2.10;1.73;;;16.70;72.50;;;;;;5101866;28;38306;-76
2021/06/06 05:03:41;;;;;;;2.63;2.10;;;16.70;72.50;;;;;;5098893;28;37621;-76
2021/06/06 05:06:11;;;;;;;2.43;2.20;;;16.70;72.60;;;;;;5077565;27;36755;-76
2021/06/06 05:08:38;;;;;;;2.20;1.70;;;16.60;72.90;;;;;;5081643;28;37028;-76
2021/06/06 05:11:06;;;;;;;2.17;1.97;;;16.60;73.20;;;;;;5086676;28;40614;-75
2021/06/06 05:13:37;;;;;;;1.90;1.77;;;16.60;73.50;;;;;;5087599;28;37744;-75
2021/06/06 05:16:07;;;;;;;2.63;2.20;;;16.60;73.40;;;;;;5089605;28;38869;-76
2021/06/06 05:18:35;;;;;;;2.37;2.17;;;16.50;73.50;;;;;;5086494;28;36610;-76
2021/06/06 05:21:07;;;;;;;3.80;2.30;;;16.50;73.60;;;;;;5090319;28;39237;-76
2021/06/06 05:23:36;;;;;;;2.20;1.83;;;16.50;74.00;;;;;;5092301;28;39985;-76
2021/06/06 05:26:10;;;;;;;2.20;2.00;;;16.40;73.80;;;;;;5124687;27;37419;-76
2021/06/06 05:28:44;;;;;;;4.50;2.40;;;16.40;74.10;;;;;;5089768;28;35910;-76
2021/06/06 05:31:17;;;;;;;2.97;2.60;;;16.40;74.20;;;;;;5095642;28;39543;-76
2021/06/06 05:33:44;;;;;;;2.50;2.30;;;16.40;74.40;;;;;;5077951;28;38441;-75
2021/06/06 05:36:12;;;;;;;2.67;2.43;;;16.30;74.50;;;;;;5085135;28;36953;-75
2021/06/06 05:38:39;;;;;;;2.93;2.60;;;16.30;74.70;;;;;;5089968;28;36951;-75
2021/06/06 05:41:07;;;;;;;6.10;3.30;;;16.30;74.60;;;;;;5093715;28;39573;-76
2021/06/06 05:43:35;;;;;;;5.10;3.27;;;16.30;75.10;;;;;;5091828;28;39160;-76
2021/06/06 05:46:02;;;;;;;4.87;3.87;;;16.30;74.50;;;;;;5107264;28;37949;-75
2021/06/06 05:48:31;;;;;;;4.13;3.33;;;16.20;74.60;;;;;;5092800;28;37035;-75
2021/06/06 05:51:01;;;;;;;4.20;3.10;;;16.20;75.00;;;;;;5091216;28;39808;-75
2021/06/06 05:53:48;;;;;;;4.87;4.37;;;16.20;75.10;;;;;;5094342;27;39803;-75
2021/06/06 05:56:15;;;;;;;5.70;3.87;;;16.30;75.50;;;;;;5093236;28;38922;-74
2021/06/06 05:58:43;;;;;;;3.90;3.20;;;16.30;76.50;;;;;;5089538;28;37937;-75
2021/06/06 06:01:11;;;;;;;3.80;3.40;;;16.30;75.90;;;;;;5085790;28;39270;-74
2021/06/06 06:03:39;;;;;;;4.80;3.50;;;16.30;75.80;;;;;;5090616;28;39367;-75
2021/06/06 06:06:08;;;;;;;3.43;2.90;;;16.30;75.90;;;;;;5124916;27;37760;-75
2021/06/06 06:08:38;;;;;;;4.27;3.53;;;16.30;76.10;;;;;;5090079;28;36926;-75
2021/06/06 06:11:11;;;;;;;3.60;3.10;;;16.40;76.20;;;;;;5097392;28;38097;-75
2021/06/06 06:13:38;;;;;;;3.40;3.10;;;16.40;76.20;;;;;;5085984;28;38976;-75
2021/06/06 06:16:08;;;;;;;5.20;3.50;;;16.40;76.20;;;;;;5090290;28;36713;-75
2021/06/06 06:18:35;;;;;;;4.37;3.37;;;16.40;76.20;;;;;;5087587;28;37938;-75
2021/06/06 06:21:06;;;;;;;4.87;3.80;;;16.50;76.90;;;;;;5090175;28;39668;-75
2021/06/06 06:23:33;;;;;;;4.50;3.60;;;16.50;76.30;;;;;;5085946;28;38687;-75
2021/06/06 06:26:00;;;;;;;4.33;3.17;;;16.60;76.40;;;;;;5118152;27;37348;-75
2021/06/06 06:28:27;;;;;;;5.73;3.77;;;16.60;76.20;;;;;;5083057;28;37233;-75
2021/06/06 06:31:31;;;;;;;6.07;3.33;;;16.60;75.80;;;;;;5078590;28;38199;-75
2021/06/06 06:34:01;;;;;;;4.00;3.50;;;16.70;75.80;;;;;;5091588;28;38828;-76
2021/06/06 06:36:30;;;;;;;4.30;3.70;;;16.70;75.90;;;;;;5091067;28;37474;-75
2021/06/06 06:39:00;;;;;;;4.00;3.33;;;16.80;75.60;;;;;;5088675;28;37320;-74
2021/06/06 06:41:29;;;;;;;4.70;3.70;;;16.80;75.60;;;;;;5092048;28;40001;-74
2021/06/06 06:43:59;;;;;;;3.97;3.63;;;16.90;75.70;;;;;;5087592;28;40001;-74
2021/06/06 06:46:27;;;;;;;3.67;3.17;;;16.80;75.70;;;;;;5091855;28;38100;-77
2021/06/06 06:48:55;;;;;;;4.40;3.60;;;16.90;76.00;;;;;;5093700;28;37430;-75
2021/06/06 06:51:23;;;;;;;4.57;3.73;;;16.90;75.50;;;;;;5091755;28;39718;-75
2021/06/06 06:53:54;;;;;;;6.13;4.63;;;16.90;75.70;;;;;;5089545;28;38715;-74
2021/06/06 06:56:22;;;;;;;4.07;3.73;;;16.80;75.30;;;;;;5092175;28;38267;-75
2021/06/06 06:58:50;;;;;;;3.23;2.93;;;16.80;76.10;;;;;;5092696;28;37236;-73
2021/06/06 07:01:17;;;;;;;3.90;3.07;;;16.80;75.40;;;;;;5088594;28;39269;-75
2021/06/06 07:03:44;;;;;;;4.03;3.17;;;16.90;75.60;;;;;;5092085;28;39754;-76
2021/06/06 07:06:14;;;;;;;5.17;3.70;;;16.90;76.00;;;;;;5092909;28;38224;-76
2021/06/06 07:08:42;;;;;;;5.07;3.97;;;16.90;76.30;;;;;;5093754;28;37261;-76
2021/06/06 07:11:14;;;;;;;3.40;3.10;;;17.00;76.00;;;;;;5091590;28;38229;-75
2021/06/06 07:13:41;;;;;;;4.00;3.30;;;17.00;76.10;;;;;;5091657;28;38989;-75
2021/06/06 07:16:10;;;;;;;4.00;3.10;;;17.10;75.80;;;;;;5088891;28;38732;-75
2021/06/06 07:18:38;;;;;;;2.93;2.63;;;17.10;76.00;;;;;;5115153;27;35785;-75
2021/06/06 07:21:07;;;;;;;2.87;2.03;;;17.20;76.00;;;;;;5087246;28;40384;-76
2021/06/06 07:23:35;;;;;;;2.43;2.00;;;17.20;75.60;;;;;;5089013;28;39008;-76
2021/06/06 07:26:06;;;;;;;1.60;1.50;;;17.20;75.20;;;;;;5085234;28;37435;-76
2021/06/06 07:28:34;;;;;;;5.00;2.30;;;17.30;74.80;;;;;;5086182;28;37809;-75
2021/06/06 07:31:06;;;;;;;2.53;2.10;;;17.20;74.40;;;;;;5112413;27;39880;-75
2021/06/06 07:33:36;;;;;;;3.70;3.20;;;17.20;74.70;;;;;;5090693;28;39906;-75
2021/06/06 07:36:05;;;;;;;4.30;3.40;;;17.20;75.00;;;;;;5084941;28;36823;-75
2021/06/06 07:38:32;;;;;;;5.27;3.40;;;17.30;75.50;;;;;;5087989;28;37049;-75
2021/06/06 07:41:01;;;;;;;5.40;3.43;;;17.30;74.50;;;;;;5084454;28;39330;-75
2021/06/06 07:43:28;;;;;;;4.63;3.33;;;17.30;74.50;;;;;;5083099;28;40030;-75
2021/06/06 07:45:57;;;;;;;4.23;3.10;;;17.40;74.70;;;;;;5087689;28;38188;-75
2021/06/06 07:48:24;;;;;;;5.80;4.50;;;17.50;74.90;;;;;;5089583;28;35950;-74
2021/06/06 07:50:53;;;;;;;5.30;4.80;;;17.50;74.50;;;;;;5091809;28;40094;-75
2021/06/06 07:53:21;;;;;;;4.73;4.20;;;17.40;73.70;;;;;;5088604;28;38991;-75
2021/06/06 07:55:48;;;;;;;4.40;3.93;;;17.40;74.00;;;;;;5091388;28;38055;-76
2021/06/06 07:58:20;;;;;;;6.37;4.87;;;17.40;73.50;;;;;;5090711;28;36998;-75
2021/06/06 08:00:47;;;;;;;6.23;5.00;;;17.30;73.60;;;;;;5087822;28;40502;-75
2021/06/06 08:03:17;;;;;;;8.97;6.57;;;17.40;73.20;;;;;;5088732;28;39014;-75
2021/06/06 08:05:44;;;;;;;6.70;5.93;;;17.40;73.60;;;;;;5114613;27;36646;-75
2021/06/06 08:08:13;;;;;;;9.30;6.77;;;17.30;73.10;;;;;;5101378;27;37746;-74
2021/06/06 08:10:43;;;;;;;8.43;7.10;;;17.30;73.50;;;;;;5090102;28;38866;-74
2021/06/06 08:13:11;;;;;;;8.63;6.57;;;17.30;73.80;;;;;;5099849;28;40405;-73
2021/06/06 08:15:40;;;;;;;8.80;6.37;;;17.30;74.00;;;;;;5098518;28;36716;-74
2021/06/06 08:18:10;;;;;;;8.17;5.57;;;17.30;74.30;;;;;;5115185;27;37712;-74
2021/06/06 08:20:41;;;;;;;10.90;6.60;;;17.40;74.40;;;;;;5091892;28;39889;-75
2021/06/06 08:23:09;;;;;;;8.03;5.80;;;17.40;74.20;;;;;;5090590;28;39538;-75
2021/06/06 08:25:38;;;;;;;8.20;5.50;;;17.50;73.90;;;;;;5093839;28;38033;-75
2021/06/06 08:28:06;;;;;;;6.33;5.73;;;17.50;74.10;;;;;;5091591;28;37070;-75
2021/06/06 08:30:37;;;;;;;7.07;5.90;;;17.50;73.70;;;;;;5120409;27;38357;-75
2021/06/06 08:33:05;;;;;;;6.77;5.87;;;17.50;73.50;;;;;;5071484;28;38662;-75
2021/06/06 08:35:32;;;;;;;9.37;7.23;;;17.50;73.30;;;;;;5104211;27;37574;-75
2021/06/06 08:38:01;;;;;;;10.10;7.60;;;17.40;73.40;;;;;;5075817;28;36056;-75
2021/06/06 08:40:34;;;;;;;8.70;7.60;;;17.40;73.80;;;;;;5092255;28;40212;-74
2021/06/06 08:43:03;;;;;;;10.57;7.60;;;17.40;73.20;;;;;;5090590;28;38762;-74
2021/06/06 08:45:35;;;;;;;11.47;7.50;;;17.40;73.20;;;;;;5091577;28;38014;-74
2021/06/06 08:48:06;;;;;;;11.97;8.60;;;17.30;73.30;;;;;;5089274;28;38005;-74
2021/06/06 08:50:41;;;;;;;12.37;9.50;;;17.30;74.00;;;;;;5089054;28;39505;-74
2021/06/06 08:53:19;;;;;;;12.93;8.80;;;17.30;74.30;;;;;;5087871;28;37769;-74
2021/06/06 08:56:04;;;;;;;12.30;9.00;;;17.30;74.50;;;;;;5091173;28;39106;-74
2021/06/06 08:58:39;;;;;;;12.67;9.53;;;17.40;74.90;;;;;;5088701;28;37172;-74
2021/06/06 09:01:12;;;;;;;13.87;8.60;;;17.40;74.80;;;;;;5084051;28;40364;-74
2021/06/06 09:03:39;;;;;;;19.20;12.77;;;17.40;74.80;;;;;;5091122;28;39217;-74
2021/06/06 09:06:11;;;;;;;16.13;10.17;;;17.40;75.00;;;;;;5094252;28;37930;-75
2021/06/06 09:08:42;;;;;;;14.77;10.90;;;17.50;74.90;;;;;;5088635;28;36146;-75
2021/06/06 09:11:14;;;;;;;22.50;11.70;;;17.50;74.50;;;;;;5094677;28;40318;-73
2021/06/06 09:13:41;;;;;;;17.67;11.63;;;17.50;74.10;;;;;;5093567;28;37619;-75
2021/06/06 09:16:19;;;;;;;18.00;11.50;;;17.60;74.80;;;;;;5096208;28;37847;-74
2021/06/06 09:18:48;;;;;;;20.97;12.43;;;17.60;74.50;;;;;;5094601;28;37165;-74
2021/06/06 09:21:19;;;;;;;19.03;12.13;;;17.70;75.50;;;;;;5094242;28;39397;-74
2021/06/06 09:23:51;;;;;;;19.00;11.23;;;17.70;74.10;;;;;;5082888;28;39665;-74
2021/06/06 09:26:24;;;;;;;19.67;12.13;;;17.70;74.00;;;;;;5094314;28;38018;-75
2021/06/06 09:29:08;;;;;;;19.43;11.93;;;17.70;73.70;;;;;;5089417;28;37772;-74
2021/06/06 09:31:36;;;;;;;20.17;12.47;;;17.80;73.90;;;;;;5090874;28;40384;-75
2021/06/06 09:34:06;;;;;;;16.90;11.50;;;17.90;73.70;;;;;;5091818;28;39900;-73
2021/06/06 09:36:39;;;;;;;22.60;12.40;;;17.80;73.60;;;;;;5085454;28;36891;-74
2021/06/06 09:39:20;;;;;;;23.90;14.03;;;17.80;73.60;;;;;;5090853;28;37486;-75
2021/06/06 09:41:50;;;;;;;22.70;12.57;;;17.70;73.50;;;;;;5091128;28;40299;-75
2021/06/06 09:44:24;;;;;;;19.27;13.03;;;17.70;73.50;;;;;;5091932;28;38877;-73
2021/06/06 09:46:52;;;;;;;19.90;12.00;;;17.60;73.40;;;;;;5091917;28;39378;-74
2021/06/06 09:49:28;;;;;;;22.90;13.20;;;17.60;73.70;;;;;;5075138;28;37688;-74
2021/06/06 09:52:15;;;;;;;22.87;13.20;;;17.60;73.60;;;;;;5093441;28;39707;-74
2021/06/06 09:54:46;;;;;;;21.40;13.07;;;17.50;73.30;;;;;;5093691;28;38882;-75
2021/06/06 09:57:23;;;;;;;23.47;12.33;;;17.50;74.10;;;;;;5091503;28;38973;-75
2021/06/06 09:59:51;;;;;;;18.40;11.93;;;17.60;74.70;;;;;;5092259;28;37701;-75
2021/06/06 10:02:28;;;;;;;26.10;14.70;;;17.60;75.00;;;;;;5092700;28;41015;-75
2021/06/06 10:05:05;;;;;;;21.83;14.20;;;17.60;75.00;;;;;;5090149;28;39104;-75
2021/06/06 10:07:37;;;;;;;27.50;13.70;;;17.70;75.20;;;;;;5091244;28;38356;-75
2021/06/06 10:10:19;;;;;;;20.33;13.93;;;17.80;75.10;;;;;;5091869;28;38348;-75
2021/06/06 10:12:48;;;;;;;28.50;14.17;;;17.90;75.30;;;;;;5092905;28;40352;-75
2021/06/06 10:15:20;;;;;;;23.87;14.10;;;18.00;75.30;;;;;;5089475;28;38574;-75
2021/06/06 10:17:53;;;;;;;26.67;15.10;;;18.00;73.80;;;;;;5090191;28;38341;-75
2021/06/06 10:20:24;;;;;;;23.67;14.63;;;18.00;73.30;;;;;;5092460;28;36082;-74
2021/06/06 10:22:56;;;;;;;33.03;17.03;;;18.00;72.90;;;;;;5106070;28;38555;-75
2021/06/06 10:25:34;;;;;;;26.60;15.77;;;18.00;73.10;;;;;;5084694;28;39093;-76
2021/06/06 10:28:06;;;;;;;21.53;14.13;;;18.00;71.70;;;;;;5093061;28;37109;-74
2021/06/06 10:30:42;;;;;;;27.20;14.50;;;18.00;71.10;;;;;;5081508;28;37496;-75
2021/06/06 10:33:22;;;;;;;26.17;15.77;;;17.90;71.80;;;;;;5087125;28;40433;-76
2021/06/06 10:35:50;;;;;;;23.57;14.73;;;17.90;72.40;;;;;;5088915;28;38976;-76
2021/06/06 10:38:17;;;;;;;25.03;14.63;;;17.90;72.60;;;;;;5093564;28;38015;-76
2021/06/06 10:40:48;;;;;;;30.00;15.17;;;17.90;72.60;;;;;;5094854;28;37621;-75
2021/06/06 10:43:29;;;;;;;24.07;15.10;;;18.00;73.00;;;;;;5080940;28;40260;-74
2021/06/06 10:46:06;;;;;;;24.90;14.77;;;18.00;73.10;;;;;;5094673;28;39948;-75
2021/06/06 10:48:37;;;;;;;22.50;14.97;;;18.20;73.10;;;;;;5092534;28;38107;-76
2021/06/06 10:51:11;;;;;;;22.87;15.60;;;18.10;72.80;;;;;;5090399;28;37677;-76
2021/06/06 10:53:39;;;;;;;23.37;16.67;;;18.10;72.10;;;;;;5091818;28;38469;-74
2021/06/06 10:56:14;;;;;;;24.37;16.33;;;18.10;72.50;;;;;;5091957;28;37674;-74
2021/06/06 10:58:56;;;;;;;23.40;15.47;;;18.30;72.40;;;;;;5089107;28;38033;-75
2021/06/06 11:01:28;;;;;;;21.73;16.20;;;18.40;72.30;;;;;;5092001;28;36155;-75
2021/06/06 11:04:10;;;;;;;19.60;15.43;;;18.60;73.00;;;;;;5071006;28;40171;-75
2021/06/06 11:06:38;;;;;;;27.17;17.10;;;18.80;73.10;;;;;;5084570;28;39252;-75
2021/06/06 11:09:19;;;;;;;20.67;14.17;;;18.90;71.50;;;;;;5091469;28;38120;-75
2021/06/06 11:11:56;;;;;;;19.60;13.80;;;18.80;70.10;;;;;;5074079;28;37400;-75
2021/06/06 11:14:34;;;;;;;21.90;15.57;;;18.90;70.30;;;;;;5091179;28;38242;-73
2021/06/06 11:17:09;;;;;;;21.53;15.93;;;19.00;71.10;;;;;;5088869;28;39224;-74
2021/06/06 11:19:37;;;;;;;19.63;14.90;;;19.10;70.20;;;;;;5091388;28;36736;-73
2021/06/06 11:22:30;;;;;;;21.73;15.63;;;19.20;69.10;;;;;;5092249;28;37439;-73
2021/06/06 11:24:59;;;;;;;18.60;14.63;;;19.20;67.90;;;;;;5081333;28;40570;-73
2021/06/06 11:27:33;;;;;;;23.17;15.33;;;19.00;67.40;;;;;;5089270;28;39581;-73
2021/06/06 11:30:09;;;;;;;21.03;15.93;;;18.90;67.70;;;;;;5090645;28;36814;-74
2021/06/06 11:32:53;;;;;;;20.80;15.53;;;18.90;67.70;;;;;;5079959;28;37694;-73
2021/06/06 11:35:40;;;;;;;24.77;16.30;;;18.90;67.80;;;;;;5090946;28;40270;-75
2021/06/06 11:38:25;;;;;;;22.57;16.97;;;18.90;68.10;;;;;;5081312;28;38720;-74
2021/06/06 11:41:07;;;;;;;21.53;17.20;;;18.90;68.40;;;;;;5089077;28;38054;-74
2021/06/06 11:43:37;;;;;;;21.10;17.17;;;19.00;68.30;;;;;;5090104;28;37387;-74
2021/06/06 11:46:16;;;;;;;24.60;17.43;;;19.10;68.00;;;;;;5089601;28;38363;-74
2021/06/06 11:48:55;;;;;;;23.37;17.90;;;19.20;67.90;;;;;;5091748;28;40144;-74
2021/06/06 11:51:36;;;;;;;23.00;17.80;;;19.10;66.90;;;;;;5090687;28;38015;-74
2021/06/06 11:54:22;;;;;;;22.50;17.57;;;18.90;67.10;;;;;;5087105;28;37445;-75
2021/06/06 11:56:49;;;;;;;22.47;17.77;;;19.00;67.20;;;;;;5084885;28;40353;-75
2021/06/06 11:59:26;;;;;;;27.00;20.13;;;18.90;67.70;;;;;;5092274;28;40044;-75
2021/06/06 12:01:57;;;;;;;25.33;19.40;;;18.90;68.10;;;;;;5090046;28;38089;-75
2021/06/06 12:04:30;;;;;;;22.37;18.83;;;19.00;68.80;;;;;;5093353;28;37514;-74
2021/06/06 12:06:58;;;;;;;26.90;19.47;;;19.00;68.60;;;;;;5093834;28;40656;-76
2021/06/06 12:09:35;;;;;;;23.13;18.57;;;19.10;68.90;;;;;;5091303;28;38853;-74
2021/06/06 12:12:08;;;;;;;28.37;20.20;;;19.10;68.10;;;;;;5091143;28;37641;-74
2021/06/06 12:14:38;;;;;;;28.90;20.50;;;19.00;67.10;;;;;;5091248;28;36293;-76
2021/06/06 12:17:19;;;;;;;24.53;19.53;;;19.00;67.60;;;;;;5089432;28;39576;-74
2021/06/06 12:19:52;;;;;;;28.73;20.93;;;19.10;68.20;;;;;;5091637;28;38987;-75
2021/06/06 12:22:28;;;;;;;26.27;20.67;;;19.20;68.20;;;;;;5092418;28;38253;-74
2021/06/06 12:25:01;;;;;;;31.03;21.67;;;19.10;67.60;;;;;;5094787;28;35872;-74
2021/06/06 12:27:32;;;;;;;32.90;24.30;;;19.10;67.90;;;;;;5095466;28;39492;-75
2021/06/06 12:30:14;;;;;;;30.63;23.30;;;19.10;68.00;;;;;;5097854;28;39238;-74
2021/06/06 12:32:49;;;;;;;32.60;23.37;;;19.00;67.80;;;;;;5092631;28;37974;-75
2021/06/06 12:35:19;;;;;;;30.63;22.40;;;18.90;67.80;;;;;;5092756;28;38082;-75
2021/06/06 12:37:48;;;;;;;30.87;23.10;;;19.00;67.90;;;;;;5074547;28;38218;-75
2021/06/06 12:40:20;;;;;;;35.40;23.70;;;19.00;68.70;;;;;;5089551;28;39490;-74
2021/06/06 12:42:49;;;;;;;29.13;21.63;;;19.00;68.00;;;;;;5096371;28;39090;-75
2021/06/06 12:45:19;;;;;;;32.03;22.70;;;19.10;68.00;;;;;;5099609;28;37307;-75
2021/06/06 12:47:47;;;;;;;32.70;23.47;;;19.30;68.60;;;;;;5096745;28;39490;-74
2021/06/06 12:50:23;;;;;;;30.00;21.97;;;19.40;68.20;;;;;;5095262;28;38752;-75
2021/06/06 12:52:54;;;;;;;29.33;21.77;;;19.50;67.50;;;;;;5096626;28;36715;-76
2021/06/06 12:55:32;;;;;;;29.47;22.00;;;19.50;66.90;;;;;;5094787;28;38028;-74
2021/06/06 12:58:01;;;;;;;32.93;22.83;;;19.40;67.20;;;;;;5092695;28;39667;-74
2021/06/06 13:00:41;;;;;;;32.07;23.00;;;19.40;67.20;;;;;;5095150;28;39726;-75
2021/06/06 13:03:31;;;;;;;31.37;22.27;;;19.40;66.80;;;;;;5094392;28;38137;-74
2021/06/06 13:06:13;;;;;;;30.67;22.60;;;19.40;66.90;;;;;;5092066;28;37359;-74